createdAt,value
2019-01-25T00:01:09.164Z,3.23
2019-01-25T00:03:39.866Z,3.13
2019-01-25T00:06:19.551Z,3.11
2019-01-25T00:08:49.439Z,3.12
2019-01-25T00:11:19.977Z,3.16
2019-01-25T00:13:52.466Z,3.13
2019-01-25T00:16:24.067Z,3.16
2019-01-25T00:18:55.282Z,3.23
2019-01-25T00:21:26.032Z,3.33
2019-01-25T00:23:58.810Z,3.32
2019-01-25T00:26:38.307Z,3.31
2019-01-25T00:29:09.420Z,3.32
2019-01-25T00:31:45.481Z,3.37
2019-01-25T00:34:31.477Z,3.38
2019-01-25T00:37:09.222Z,3.39
2019-01-25T00:39:41.454Z,3.41
2019-01-25T00:42:17.413Z,3.45
2019-01-25T00:44:49.053Z,3.39
2019-01-25T00:47:19.852Z,3.42
2019-01-25T00:49:49.700Z,3.39
2019-01-25T00:52:28.594Z,3.40
2019-01-25T00:55:00.295Z,3.43
2019-01-25T00:57:31.238Z,3.40
2019-01-25T01:00:04.830Z,3.36
2019-01-25T01:02:54.209Z,3.27
2019-01-25T01:05:27.206Z,3.20
2019-01-25T01:07:59.297Z,3.11
2019-01-25T01:10:36.422Z,3.08
2019-01-25T01:13:08.798Z,3.01
2019-01-25T01:15:39.117Z,2.92
2019-01-25T01:18:09.216Z,2.88
2019-01-25T01:20:42.027Z,2.89
2019-01-25T01:23:11.934Z,2.89
2019-01-25T01:25:44.220Z,2.89
2019-01-25T01:28:17.612Z,2.81
2019-01-25T01:30:47.751Z,2.82
2019-01-25T01:33:29.552Z,2.77
2019-01-25T01:36:02.003Z,2.80
2019-01-25T01:38:34.244Z,2.79
2019-01-25T01:41:04.906Z,2.77
2019-01-25T01:43:39.002Z,2.68
2019-01-25T01:46:20.196Z,2.64
2019-01-25T01:48:53.314Z,2.63
2019-01-25T01:51:27.457Z,2.60
2019-01-25T01:54:09.645Z,2.61
2019-01-25T01:56:39.583Z,2.68
2019-01-25T01:59:09.511Z,2.65
2019-01-25T02:01:57.775Z,2.68
2019-01-25T02:04:38.501Z,2.64
2019-01-25T02:07:19.501Z,2.67
2019-01-25T02:09:54.153Z,2.65
2019-01-25T02:12:27.391Z,2.62
2019-01-25T02:14:57.402Z,2.66
2019-01-25T02:17:27.634Z,2.62
2019-01-25T02:19:57.603Z,2.53
2019-01-25T02:22:31.003Z,2.45
2019-01-25T02:25:17.646Z,2.38
2019-01-25T02:27:48.546Z,2.33
2019-01-25T02:30:30.282Z,2.41
2019-01-25T02:33:01.696Z,2.40
2019-01-25T02:35:42.113Z,2.40
2019-01-25T02:38:18.714Z,2.32
2019-01-25T02:41:05.403Z,2.34
2019-01-25T02:43:52.548Z,2.36
2019-01-25T02:46:40.572Z,2.34
2019-01-25T02:49:28.094Z,2.33
2019-01-25T02:52:16.580Z,2.30
2019-01-25T02:54:52.333Z,2.30
2019-01-25T02:57:43.771Z,2.38
2019-01-25T03:00:24.464Z,2.36
2019-01-25T03:02:59.580Z,2.40
2019-01-25T03:05:31.784Z,2.34
2019-01-25T03:08:09.231Z,2.33
2019-01-25T03:10:56.361Z,2.35
2019-01-25T03:13:26.791Z,2.38
2019-01-25T03:15:56.761Z,2.34
2019-01-25T03:18:26.762Z,2.32
2019-01-25T03:21:00.409Z,2.26
2019-01-25T03:23:41.358Z,2.30
2019-01-25T03:26:12.292Z,2.27
2019-01-25T03:28:44.164Z,2.30
2019-01-25T03:31:28.716Z,2.29
2019-01-25T03:34:08.869Z,2.27
2019-01-25T03:36:57.804Z,2.30
2019-01-25T03:39:46.961Z,2.26
2019-01-25T03:42:30.209Z,2.23
2019-01-25T03:45:03.056Z,2.17
2019-01-25T03:47:39.982Z,2.18
2019-01-25T03:50:18.657Z,2.21
2019-01-25T03:52:53.496Z,2.27
2019-01-25T03:55:37.504Z,2.27
2019-01-25T03:58:13.747Z,2.23
2019-01-25T04:00:53.348Z,2.28
2019-01-25T04:03:30.049Z,2.27
2019-01-25T04:06:03.506Z,2.26
2019-01-25T04:08:47.211Z,2.21
2019-01-25T04:11:21.213Z,2.18
2019-01-25T04:14:03.881Z,2.25
2019-01-25T04:16:42.762Z,2.26
2019-01-25T04:19:27.129Z,2.22
2019-01-25T04:22:18.709Z,2.18
2019-01-25T04:25:02.814Z,2.12
2019-01-25T04:27:36.948Z,2.12
2019-01-25T04:30:24.433Z,2.08
2019-01-25T04:33:02.872Z,2.08
2019-01-25T04:35:43.585Z,2.10
2019-01-25T04:38:23.354Z,2.06
2019-01-25T04:40:56.678Z,2.14
2019-01-25T04:43:32.602Z,2.13
2019-01-25T04:46:06.729Z,2.23
2019-01-25T04:48:43.624Z,2.16
2019-01-25T04:51:16.013Z,2.07
2019-01-25T04:53:46.275Z,2.09
2019-01-25T04:56:17.906Z,2.14
2019-01-25T04:58:50.942Z,2.19
2019-01-25T05:01:41.348Z,2.14
2019-01-25T05:04:21.249Z,2.11
2019-01-25T05:09:39.623Z,2.23
2019-01-25T05:12:19.551Z,2.27
2019-01-25T05:14:59.857Z,2.40
2019-01-25T05:17:35.209Z,2.47
2019-01-25T05:20:16.973Z,2.52
2019-01-25T05:22:57.527Z,2.58
2019-01-25T05:25:29.563Z,2.59
2019-01-25T05:28:10.483Z,2.65
2019-01-25T05:31:00.057Z,2.64
2019-01-25T05:33:39.011Z,2.57
2019-01-25T05:36:09.616Z,2.57
2019-01-25T05:38:47.081Z,2.61
2019-01-25T05:41:28.498Z,2.52
2019-01-25T05:44:01.689Z,2.58
2019-01-25T05:46:37.015Z,2.61
2019-01-25T05:49:10.237Z,2.66
2019-01-25T05:51:47.094Z,2.67
2019-01-25T05:54:28.053Z,2.62
2019-01-25T05:57:19.546Z,2.61
2019-01-25T06:00:09.935Z,2.64
2019-01-25T06:02:55.827Z,2.63
2019-01-25T06:05:28.908Z,2.67
2019-01-25T06:07:59.862Z,2.66
2019-01-25T06:10:32.936Z,2.65
2019-01-25T06:13:17.220Z,2.56
2019-01-25T06:15:49.419Z,2.63
2019-01-25T06:18:20.961Z,2.64
2019-01-25T06:20:55.849Z,2.63
2019-01-25T06:23:33.749Z,2.60
2019-01-25T06:26:13.965Z,2.59
2019-01-25T06:28:49.888Z,2.56
2019-01-25T06:31:33.187Z,2.62
2019-01-25T06:34:08.483Z,2.55
2019-01-25T06:36:40.477Z,2.48
2019-01-25T06:39:11.436Z,2.51
2019-01-25T06:41:53.632Z,2.38
2019-01-25T06:44:28.422Z,2.28
2019-01-25T06:47:03.933Z,2.21
2019-01-25T06:52:21.490Z,2.11
2019-01-25T06:54:59.081Z,2.09
2019-01-25T06:57:41.111Z,2.06
2019-01-25T07:00:30.487Z,2.09
2019-01-25T07:03:09.193Z,2.05
2019-01-25T07:05:45.718Z,2.10
2019-01-25T07:08:17.318Z,2.17
2019-01-25T07:10:48.560Z,2.40
2019-01-25T07:13:30.912Z,2.72
2019-01-25T07:16:04.750Z,3.08
2019-01-25T07:18:41.261Z,3.48
2019-01-25T07:21:13.697Z,3.43
2019-01-25T07:23:43.329Z,3.36
2019-01-25T07:26:16.521Z,3.79
2019-01-25T07:28:49.135Z,4.03
2019-01-25T07:31:30.098Z,4.30
2019-01-25T07:34:15.175Z,4.83
2019-01-25T07:36:52.780Z,4.83
2019-01-25T07:39:31.481Z,5.00
2019-01-25T07:42:19.276Z,5.09
2019-01-25T07:44:54.183Z,5.27
2019-01-25T07:47:29.855Z,5.42
2019-01-25T07:50:04.378Z,5.57
2019-01-25T07:52:38.537Z,5.85
2019-01-25T07:55:12.893Z,6.32
2019-01-25T07:57:47.433Z,6.52
2019-01-25T08:00:17.833Z,6.43
2019-01-25T08:03:01.168Z,6.33
2019-01-25T08:05:38.496Z,6.41
2019-01-25T08:08:11.711Z,6.50
2019-01-25T08:11:09.717Z,6.57
2019-01-25T08:14:05.926Z,6.42
2019-01-25T08:16:47.007Z,6.61
2019-01-25T08:19:43.127Z,6.94
2019-01-25T08:22:38.094Z,6.92
2019-01-25T08:25:29.131Z,6.92
2019-01-25T08:28:16.208Z,7.18
2019-01-25T08:31:10.468Z,6.81
2019-01-25T08:33:53.954Z,6.53
2019-01-25T08:36:37.804Z,6.66
2019-01-25T08:39:36.021Z,6.82
2019-01-25T08:42:39.280Z,6.82
2019-01-25T08:45:35.535Z,7.06
2019-01-25T08:48:15.161Z,7.39
2019-01-25T08:50:52.690Z,7.36
2019-01-25T08:53:28.570Z,7.48
2019-01-25T08:56:15.386Z,7.74
2019-01-25T08:58:52.419Z,7.93
2019-01-25T09:01:36.130Z,7.50
2019-01-25T09:04:16.076Z,7.56
2019-01-25T09:06:50.556Z,7.76
2019-01-25T09:09:24.081Z,8.02
2019-01-25T09:12:07.518Z,7.77
2019-01-25T09:18:05.667Z,7.70
2019-01-25T09:21:20.925Z,7.40
2019-01-25T09:24:04.199Z,6.75
2019-01-25T09:26:39.706Z,6.84
2019-01-25T09:29:30.474Z,6.59
2019-01-25T09:32:22.106Z,6.09
2019-01-25T09:35:20.466Z,5.88
2019-01-25T09:38:11.635Z,5.95
2019-01-25T09:41:08.903Z,6.25
2019-01-25T09:44:02.220Z,5.88
2019-01-25T09:46:50.184Z,5.69
2019-01-25T09:49:31.180Z,5.50
2019-01-25T09:52:23.282Z,5.64
2019-01-25T09:55:28.848Z,6.14
2019-01-25T09:58:29.696Z,6.43
2019-01-25T10:01:11.085Z,6.20
2019-01-25T10:04:16.316Z,6.19
2019-01-25T10:07:17.221Z,5.78
2019-01-25T10:10:01.254Z,6.05
2019-01-25T10:12:43.056Z,6.05
2019-01-25T10:15:29.517Z,6.14
2019-01-25T10:18:03.647Z,6.14
2019-01-25T10:20:40.320Z,5.68
2019-01-25T10:23:39.208Z,5.61
2019-01-25T10:26:10.756Z,5.32
2019-01-25T10:28:45.752Z,5.15
2019-01-25T10:31:30.538Z,5.57
2019-01-25T10:34:19.360Z,5.72
2019-01-25T10:37:14.768Z,5.86
2019-01-25T10:40:04.588Z,6.20
2019-01-25T10:42:59.442Z,6.31
2019-01-25T10:45:42.227Z,7.19
2019-01-25T10:48:23.557Z,7.19
2019-01-25T10:51:08.291Z,7.71
2019-01-25T10:54:09.450Z,7.86
2019-01-25T10:56:49.960Z,7.74
2019-01-25T10:59:30.476Z,7.61
2019-01-25T11:02:04.824Z,7.92
2019-01-25T11:04:48.987Z,7.82
2019-01-25T11:07:42.209Z,7.69
2019-01-25T11:10:22.404Z,8.57
2019-01-25T11:13:01.048Z,8.18
2019-01-25T11:15:55.180Z,8.19
2019-01-25T11:18:32.877Z,8.52
2019-01-25T11:21:03.454Z,7.98
2019-01-25T11:23:48.357Z,7.94
2019-01-25T11:26:35.438Z,8.30
2019-01-25T11:29:30.254Z,8.23
2019-01-25T11:32:33.469Z,8.12
2019-01-25T11:38:18.787Z,7.79
2019-01-25T11:40:52.062Z,7.56
2019-01-25T11:43:26.887Z,6.98
2019-01-25T11:56:00.245Z,7.50
2019-01-25T11:58:34.945Z,7.47
2019-01-25T12:01:09.551Z,7.41
2019-01-25T12:03:46.661Z,7.75
2019-01-25T12:06:52.753Z,7.59
2019-01-25T12:09:23.993Z,7.62
2019-01-25T12:12:12.033Z,7.71
2019-01-25T12:14:48.634Z,7.58
2019-01-25T12:17:25.177Z,8.10
2019-01-25T12:20:02.270Z,6.84
2019-01-25T12:22:32.531Z,6.84
2019-01-25T12:25:18.218Z,6.77
2019-01-25T12:27:57.087Z,6.44
2019-01-25T12:30:29.778Z,6.49
2019-01-25T12:36:45.161Z,6.30
2019-01-25T12:39:49.719Z,6.49
2019-01-25T12:42:34.172Z,7.10
2019-01-25T12:45:50.327Z,6.89
2019-01-25T12:48:36.246Z,6.58
2019-01-25T12:51:11.435Z,6.55
2019-01-25T12:53:47.222Z,6.03
2019-01-25T12:56:37.892Z,6.06
2019-01-25T12:59:40.565Z,5.98
2019-01-25T13:02:22.343Z,5.88
2019-01-25T13:04:54.881Z,5.40
2019-01-25T13:07:38.423Z,5.24
2019-01-25T13:10:24.261Z,5.10
2019-01-25T13:13:00.706Z,4.97
2019-01-25T13:15:38.109Z,4.38
2019-01-25T13:18:14.507Z,4.47
2019-01-25T13:20:52.826Z,4.40
2019-01-25T13:23:34.983Z,5.28
2019-01-25T13:26:12.662Z,5.72
2019-01-25T13:28:54.302Z,5.54
2019-01-25T13:31:29.105Z,5.82
2019-01-25T13:34:05.796Z,5.13
2019-01-25T13:36:41.909Z,5.56
2019-01-25T13:39:25.171Z,6.21
2019-01-25T13:42:03.761Z,6.23
2019-01-25T13:44:36.459Z,6.15
2019-01-25T13:47:30.311Z,5.96
2019-01-25T13:50:16.361Z,5.43
2019-01-25T13:52:55.059Z,6.23
2019-01-25T13:55:38.528Z,6.34
2019-01-25T14:01:46.051Z,5.54
2019-01-25T14:04:31.727Z,5.55
2019-01-25T14:07:36.882Z,5.23
2019-01-25T14:10:39.253Z,4.85
2019-01-25T14:13:34.271Z,5.14
2019-01-25T14:16:11.222Z,4.96
2019-01-25T14:18:45.058Z,5.22
2019-01-25T14:21:35.633Z,5.24
2019-01-25T14:24:32.861Z,5.07
2019-01-25T14:27:18.278Z,5.59
2019-01-25T14:29:55.869Z,5.12
2019-01-25T14:32:36.505Z,5.28
2019-01-25T14:35:12.216Z,4.48
2019-01-25T14:38:03.852Z,4.50
2019-01-25T14:41:09.867Z,4.58
2019-01-25T14:43:54.426Z,4.23
2019-01-25T14:46:32.334Z,4.11
2019-01-25T14:49:28.894Z,3.87
2019-01-25T14:52:21.348Z,3.90
2019-01-25T14:55:12.848Z,3.89
2019-01-25T14:58:01.027Z,3.92
2019-01-25T15:00:49.863Z,3.91
2019-01-25T15:03:50.444Z,3.89
2019-01-25T15:06:32.775Z,3.84
2019-01-25T15:09:14.297Z,3.76
2019-01-25T15:11:51.624Z,3.85
2019-01-25T15:14:25.463Z,3.86
2019-01-25T15:17:01.944Z,3.83
2019-01-25T15:20:06.198Z,3.82
2019-01-25T15:22:54.246Z,3.78
2019-01-25T15:28:17.638Z,3.55
2019-01-25T15:30:50.630Z,3.51
2019-01-25T15:33:38.577Z,3.52
2019-01-25T15:36:21.651Z,3.50
2019-01-25T15:39:17.740Z,3.49
2019-01-25T15:42:15.736Z,3.42
2019-01-25T15:44:55.727Z,3.38
2019-01-25T15:47:59.776Z,3.38
2019-01-25T15:51:01.132Z,3.29
2019-01-25T15:53:53.956Z,3.25
2019-01-25T15:56:39.013Z,3.20
2019-01-25T15:59:17.024Z,3.16
2019-01-25T16:02:01.979Z,3.16
2019-01-25T16:04:42.171Z,3.13
2019-01-25T16:07:22.159Z,3.10
2019-01-25T16:10:02.705Z,3.04
2019-01-25T16:12:51.280Z,3.05
2019-01-25T16:15:30.635Z,2.96
2019-01-25T16:18:15.638Z,2.98
2019-01-25T16:21:08.404Z,2.92
2019-01-25T16:23:52.539Z,2.83
2019-01-25T16:26:35.264Z,2.93
2019-01-25T16:29:23.658Z,2.94
2019-01-25T16:32:11.445Z,2.97
2019-01-25T16:34:46.194Z,2.94
2019-01-25T16:37:33.566Z,2.92
2019-01-25T16:40:08.167Z,2.87
2019-01-25T16:42:44.174Z,2.89
2019-01-25T16:45:20.451Z,2.92
2019-01-25T16:48:02.470Z,2.91
2019-01-25T16:50:39.824Z,2.91
2019-01-25T16:53:13.632Z,2.94
2019-01-25T16:55:50.637Z,2.94
2019-01-25T16:58:25.384Z,2.99
2019-01-25T17:01:04.818Z,2.96
2019-01-25T17:03:43.657Z,2.97
2019-01-25T17:06:22.098Z,3.01
2019-01-25T17:09:00.417Z,2.99
2019-01-25T17:11:34.045Z,2.97
2019-01-25T17:14:04.176Z,3.04
2019-01-25T17:16:45.232Z,3.00
2019-01-25T17:19:21.063Z,3.08
2019-01-25T17:22:01.683Z,3.05
2019-01-25T17:24:43.050Z,3.09
2019-01-25T17:27:23.175Z,3.03
2019-01-25T17:29:58.465Z,2.90
2019-01-25T17:32:37.160Z,2.77
2019-01-25T17:35:11.617Z,2.65
2019-01-25T17:37:43.644Z,2.68
2019-01-25T17:40:21.004Z,2.81
2019-01-25T17:43:00.486Z,2.80
2019-01-25T17:45:33.949Z,2.86
2019-01-25T17:48:14.477Z,2.82
2019-01-25T17:50:51.792Z,2.86
2019-01-25T17:53:27.902Z,2.79
2019-01-25T17:55:58.053Z,2.73
2019-01-25T17:58:30.247Z,2.63
2019-01-25T18:01:04.053Z,2.66
2019-01-25T18:03:45.249Z,2.64
2019-01-25T18:06:25.206Z,2.70
2019-01-25T18:09:02.039Z,2.70
2019-01-25T18:11:40.703Z,2.65
2019-01-25T18:14:21.995Z,2.61
2019-01-25T18:17:01.720Z,2.60
2019-01-25T18:19:40.527Z,2.47
2019-01-25T18:22:23.452Z,2.31
2019-01-25T18:25:03.519Z,2.14
2019-01-25T18:27:47.394Z,2.09
2019-01-25T18:30:35.244Z,2.13
2019-01-25T18:33:19.031Z,2.20
2019-01-25T18:35:55.172Z,2.28
2019-01-25T18:38:38.841Z,2.28
2019-01-25T18:41:09.925Z,2.24
2019-01-25T18:43:42.865Z,2.33
2019-01-25T18:46:16.674Z,2.33
2019-01-25T18:48:52.018Z,2.32
2019-01-25T18:51:28.526Z,2.30
2019-01-25T18:54:03.019Z,2.29
2019-01-25T18:56:38.847Z,2.31
2019-01-25T18:59:16.245Z,2.31
2019-01-25T19:01:57.511Z,2.25
2019-01-25T19:04:38.731Z,2.26
2019-01-25T19:07:22.596Z,2.26
2019-01-25T19:10:08.028Z,2.18
2019-01-25T19:12:46.777Z,2.24
2019-01-25T19:15:33.917Z,2.19
2019-01-25T19:18:14.120Z,2.21
2019-01-25T19:20:47.689Z,2.22
2019-01-25T19:23:17.445Z,2.19
2019-01-25T19:25:47.618Z,2.21
2019-01-25T19:28:19.163Z,2.21
2019-01-25T19:30:48.941Z,2.22
2019-01-25T19:33:23.792Z,2.26
2019-01-25T19:36:03.667Z,2.32
2019-01-25T19:38:36.260Z,2.29
2019-01-25T19:41:10.238Z,2.26
2019-01-25T19:43:53.266Z,2.24
2019-01-25T19:46:24.625Z,2.21
2019-01-25T19:49:03.111Z,2.24
2019-01-25T19:51:43.086Z,2.21
2019-01-25T19:54:14.846Z,2.15
2019-01-25T19:56:53.263Z,2.10
2019-01-25T19:59:24.508Z,2.14
2019-01-25T20:02:00.992Z,2.13
2019-01-25T20:04:57.713Z,2.14
2019-01-25T20:07:41.269Z,2.12
2019-01-25T20:10:20.465Z,2.15
2019-01-25T20:13:03.262Z,2.13
2019-01-25T20:15:42.682Z,2.14
2019-01-25T20:18:13.256Z,2.13
2019-01-25T20:20:43.688Z,2.11
2019-01-25T20:23:27.631Z,2.08
2019-01-25T20:26:05.801Z,2.06
2019-01-25T20:28:41.815Z,2.01
2019-01-25T20:31:14.530Z,2.02
2019-01-25T20:37:03.907Z,2.06
2019-01-25T20:40:00.422Z,2.01
2019-01-25T20:42:47.278Z,2.00
2019-01-25T20:45:53.096Z,2.01
2019-01-25T20:48:51.103Z,1.95
2019-01-25T20:51:40.932Z,1.97
2019-01-25T20:54:14.017Z,2.00
2019-01-25T20:56:59.540Z,2.02
2019-01-25T20:59:30.925Z,1.93
2019-01-25T21:02:02.386Z,1.89
2019-01-25T21:04:36.320Z,1.86
2019-01-25T21:07:17.158Z,1.84
2019-01-25T21:09:51.644Z,1.91
2019-01-25T21:12:45.448Z,1.84
2019-01-25T21:15:26.739Z,1.86
2019-01-25T21:18:01.916Z,1.90
2019-01-25T21:21:00.299Z,1.96
2019-01-25T21:24:02.009Z,2.03
2019-01-25T21:26:45.161Z,1.98
2019-01-25T21:29:31.319Z,2.01
2019-01-25T21:32:15.485Z,2.02
2019-01-25T21:35:13.874Z,1.91
2019-01-25T21:38:09.851Z,1.91
2019-01-25T21:41:12.562Z,1.88
2019-01-25T21:43:58.459Z,1.90
2019-01-25T21:46:49.179Z,1.90
2019-01-25T21:49:32.987Z,1.85
2019-01-25T21:52:43.590Z,1.84
2019-01-25T21:55:36.669Z,1.85
2019-01-25T21:58:42.580Z,1.91
2019-01-25T22:01:18.804Z,1.84
2019-01-25T22:04:01.519Z,1.76
2019-01-25T22:06:43.916Z,1.85
2019-01-25T22:09:44.122Z,1.79
2019-01-25T22:12:42.841Z,1.74
2019-01-25T22:15:19.427Z,1.76
2019-01-25T22:18:02.155Z,1.78
2019-01-25T22:20:44.060Z,1.80
2019-01-25T22:26:46.553Z,1.86
2019-01-25T22:29:38.850Z,1.84
2019-01-25T22:32:36.475Z,1.72
2019-01-25T22:35:27.424Z,1.70
2019-01-25T22:38:21.147Z,1.67
2019-01-25T22:41:08.945Z,1.65
2019-01-25T22:44:00.863Z,1.62
2019-01-25T22:47:20.086Z,1.61
2019-01-25T22:50:05.656Z,1.58
2019-01-25T22:52:51.943Z,1.52
2019-01-25T22:55:59.881Z,1.44
2019-01-25T22:59:08.563Z,1.38
2019-01-25T23:05:31.650Z,1.24
2019-01-25T23:08:28.497Z,1.15
2019-01-25T23:11:05.827Z,1.15
2019-01-25T23:13:57.427Z,1.23
2019-01-25T23:16:59.328Z,1.22
2019-01-25T23:19:38.936Z,1.32
2019-01-25T23:22:27.013Z,1.40
2019-01-25T23:25:10.018Z,1.42
2019-01-25T23:28:00.692Z,1.38
2019-01-25T23:30:53.110Z,1.40
2019-01-25T23:33:57.929Z,1.33
2019-01-25T23:36:51.538Z,1.37
2019-01-25T23:39:36.272Z,1.38
2019-01-25T23:42:17.961Z,1.50
2019-01-25T23:45:05.960Z,1.50
2019-01-25T23:47:55.063Z,1.62
2019-01-25T23:50:39.744Z,1.58
2019-01-25T23:53:35.302Z,1.64
2019-01-25T23:56:15.448Z,1.65
2019-01-25T23:59:06.350Z,1.65
